sensor_id;sensor_type;location;lat;lon;timestamp;temperature;humidity
39779;DHT22;25454;49.878;8.618;2022-09-01T00:02:46;17.10;99.90
39779;DHT22;25454;49.878;8.618;2022-09-01T00:07:51;17.00;99.90
39779;DHT22;25454;49.878;8.618;2022-09-01T00:12:52;16.90;99.90
39779;DHT22;25454;49.878;8.618;2022-09-01T00:17:53;16.80;99.90
39779;DHT22;25454;49.878;8.618;2022-09-01T00:22:53;16.70;99.90
39779;DHT22;25454;49.878;8.618;2022-09-01T00:27:54;16.70;99.90
39779;DHT22;25454;49.878;8.618;2022-09-01T00:32:59;16.60;99.90
39779;DHT22;25454;49.878;8.618;2022-09-01T00:38:00;16.60;99.90
39779;DHT22;25454;49.878;8.618;2022-09-01T00:43:09;16.50;99.90
39779;DHT22;25454;49.878;8.618;2022-09-01T00:48:10;16.50;99.90
39779;DHT22;25454;49.878;8.618;2022-09-01T00:53:10;16.40;99.90
39779;DHT22;25454;49.878;8.618;2022-09-01T00:58:11;16.40;99.90
39779;DHT22;25454;49.878;8.618;2022-09-01T01:03:13;16.30;99.90
39779;DHT22;25454;49.878;8.618;2022-09-01T01:08:14;16.30;99.90
39779;DHT22;25454;49.878;8.618;2022-09-01T01:13:18;16.20;99.90
39779;DHT22;25454;49.878;8.618;2022-09-01T01:18:20;16.20;99.90
39779;DHT22;25454;49.878;8.618;2022-09-01T01:28:54;16.10;99.90
39779;DHT22;25454;49.878;8.618;2022-09-01T01:33:55;16.10;99.90
39779;DHT22;25454;49.878;8.618;2022-09-01T01:38:58;16.00;99.90
39779;DHT22;25454;49.878;8.618;2022-09-01T01:44:02;16.00;99.90
39779;DHT22;25454;49.878;8.618;2022-09-01T01:49:03;16.00;99.90
39779;DHT22;25454;49.878;8.618;2022-09-01T01:54:04;15.90;99.90
39779;DHT22;25454;49.878;8.618;2022-09-01T01:59:07;15.90;99.90
39779;DHT22;25454;49.878;8.618;2022-09-01T02:04:10;15.90;99.90
39779;DHT22;25454;49.878;8.618;2022-09-01T02:09:16;15.90;99.90
39779;DHT22;25454;49.878;8.618;2022-09-01T02:14:17;15.80;99.90
39779;DHT22;25454;49.878;8.618;2022-09-01T02:19:19;15.80;99.90
39779;DHT22;25454;49.878;8.618;2022-09-01T02:24:21;15.70;99.90
39779;DHT22;25454;49.878;8.618;2022-09-01T02:29:23;15.70;99.90
39779;DHT22;25454;49.878;8.618;2022-09-01T02:34:26;15.70;99.90
39779;DHT22;25454;49.878;8.618;2022-09-01T02:39:30;15.60;99.90
39779;DHT22;25454;49.878;8.618;2022-09-01T02:44:34;15.60;99.90
39779;DHT22;25454;49.878;8.618;2022-09-01T02:49:34;15.50;99.90
39779;DHT22;25454;49.878;8.618;2022-09-01T02:54:35;15.50;99.90
39779;DHT22;25454;49.878;8.618;2022-09-01T02:59:36;15.40;99.90
39779;DHT22;25454;49.878;8.618;2022-09-01T03:04:37;15.40;99.90
39779;DHT22;25454;49.878;8.618;2022-09-01T03:09:38;15.40;99.90
39779;DHT22;25454;49.878;8.618;2022-09-01T03:14:40;15.40;99.90
39779;DHT22;25454;49.878;8.618;2022-09-01T03:19:41;15.30;99.90
39779;DHT22;25454;49.878;8.618;2022-09-01T03:24:43;15.30;99.90
39779;DHT22;25454;49.878;8.618;2022-09-01T03:29:47;15.30;99.90
39779;DHT22;25454;49.878;8.618;2022-09-01T03:34:47;15.30;99.90
39779;DHT22;25454;49.878;8.618;2022-09-01T03:39:48;15.20;99.90
39779;DHT22;25454;49.878;8.618;2022-09-01T03:44:51;15.20;99.90
39779;DHT22;25454;49.878;8.618;2022-09-01T03:49:55;15.20;99.90
39779;DHT22;25454;49.878;8.618;2022-09-01T03:54:57;15.20;99.90
39779;DHT22;25454;49.878;8.618;2022-09-01T03:59:58;15.20;99.90
39779;DHT22;25454;49.878;8.618;2022-09-01T04:04:59;15.10;99.90
39779;DHT22;25454;49.878;8.618;2022-09-01T04:10:00;15.10;99.90
39779;DHT22;25454;49.878;8.618;2022-09-01T04:15:01;15.00;99.90
39779;DHT22;25454;49.878;8.618;2022-09-01T04:20:05;15.00;99.90
39779;DHT22;25454;49.878;8.618;2022-09-01T04:25:08;15.10;99.90
39779;DHT22;25454;49.878;8.618;2022-09-01T04:30:09;15.10;99.90
39779;DHT22;25454;49.878;8.618;2022-09-01T04:35:10;15.20;99.90
39779;DHT22;25454;49.878;8.618;2022-09-01T04:40:16;15.30;99.90
39779;DHT22;25454;49.878;8.618;2022-09-01T04:45:16;15.40;99.90
39779;DHT22;25454;49.878;8.618;2022-09-01T04:50:19;15.50;99.90
39779;DHT22;25454;49.878;8.618;2022-09-01T04:55:21;15.50;99.90
39779;DHT22;25454;49.878;8.618;2022-09-01T05:00:26;15.60;99.90
39779;DHT22;25454;49.878;8.618;2022-09-01T05:05:40;15.70;99.90
39779;DHT22;25454;49.878;8.618;2022-09-01T05:10:44;15.80;99.90
39779;DHT22;25454;49.878;8.618;2022-09-01T05:15:46;15.90;99.90
39779;DHT22;25454;49.878;8.618;2022-09-01T05:20:47;15.90;99.90
39779;DHT22;25454;49.878;8.618;2022-09-01T05:25:49;16.10;99.90
39779;DHT22;25454;49.878;8.618;2022-09-01T05:30:50;16.20;99.90
39779;DHT22;25454;49.878;8.618;2022-09-01T05:35:55;16.20;99.90
39779;DHT22;25454;49.878;8.618;2022-09-01T05:41:00;16.20;99.90
39779;DHT22;25454;49.878;8.618;2022-09-01T05:46:07;16.20;99.90
39779;DHT22;25454;49.878;8.618;2022-09-01T05:51:10;16.30;99.90
39779;DHT22;25454;49.878;8.618;2022-09-01T05:56:11;16.30;99.90
39779;DHT22;25454;49.878;8.618;2022-09-01T06:01:20;16.80;99.90
39779;DHT22;25454;49.878;8.618;2022-09-01T06:06:44;17.20;99.90
39779;DHT22;25454;49.878;8.618;2022-09-01T06:11:46;17.50;99.90
39779;DHT22;25454;49.878;8.618;2022-09-01T06:16:46;17.70;99.90
39779;DHT22;25454;49.878;8.618;2022-09-01T06:21:47;17.50;99.90
39779;DHT22;25454;49.878;8.618;2022-09-01T06:26:48;17.50;99.90
39779;DHT22;25454;49.878;8.618;2022-09-01T06:31:48;17.50;99.90
39779;DHT22;25454;49.878;8.618;2022-09-01T06:36:52;17.60;99.90
39779;DHT22;25454;49.878;8.618;2022-09-01T06:41:52;17.70;99.90
39779;DHT22;25454;49.878;8.618;2022-09-01T06:46:54;17.90;99.90
39779;DHT22;25454;49.878;8.618;2022-09-01T06:51:54;18.20;99.90
39779;DHT22;25454;49.878;8.618;2022-09-01T06:56:55;18.50;99.90
39779;DHT22;25454;49.878;8.618;2022-09-01T07:01:58;19.00;99.90
39779;DHT22;25454;49.878;8.618;2022-09-01T07:07:00;19.60;99.90
39779;DHT22;25454;49.878;8.618;2022-09-01T07:12:07;20.00;99.90
39779;DHT22;25454;49.878;8.618;2022-09-01T07:17:08;20.50;99.80
39779;DHT22;25454;49.878;8.618;2022-09-01T07:22:15;20.90;98.40
39779;DHT22;25454;49.878;8.618;2022-09-01T07:27:16;21.00;97.60
39779;DHT22;25454;49.878;8.618;2022-09-01T07:32:19;21.10;97.00
39779;DHT22;25454;49.878;8.618;2022-09-01T07:37:20;21.60;96.30
39779;DHT22;25454;49.878;8.618;2022-09-01T07:42:22;21.70;95.90
39779;DHT22;25454;49.878;8.618;2022-09-01T07:47:23;24.00;91.20
39779;DHT22;25454;49.878;8.618;2022-09-01T07:52:24;24.60;85.40
39779;DHT22;25454;49.878;8.618;2022-09-01T07:57:24;24.10;86.00
39779;DHT22;25454;49.878;8.618;2022-09-01T08:02:25;24.30;84.40
39779;DHT22;25454;49.878;8.618;2022-09-01T08:07:27;24.30;84.10
39779;DHT22;25454;49.878;8.618;2022-09-01T08:12:27;24.00;84.70
39779;DHT22;25454;49.878;8.618;2022-09-01T08:17:28;24.40;82.10
39779;DHT22;25454;49.878;8.618;2022-09-01T08:22:29;24.70;80.80
39779;DHT22;25454;49.878;8.618;2022-09-01T08:27:32;24.50;80.50
39779;DHT22;25454;49.878;8.618;2022-09-01T08:32:36;24.30;81.80
39779;DHT22;25454;49.878;8.618;2022-09-01T08:37:38;24.30;80.80
39779;DHT22;25454;49.878;8.618;2022-09-01T08:48:00;23.80;82.00
39779;DHT22;25454;49.878;8.618;2022-09-01T08:58:33;23.90;82.40
39779;DHT22;25454;49.878;8.618;2022-09-01T09:04:03;24.30;80.70
39779;DHT22;25454;49.878;8.618;2022-09-01T09:09:09;24.10;81.10
39779;DHT22;25454;49.878;8.618;2022-09-01T09:24:49;26.40;71.90
39779;DHT22;25454;49.878;8.618;2022-09-01T09:29:53;28.50;64.50
39779;DHT22;25454;49.878;8.618;2022-09-01T09:34:53;30.70;55.80
39779;DHT22;25454;49.878;8.618;2022-09-01T09:40:18;29.70;55.70
39779;DHT22;25454;49.878;8.618;2022-09-01T09:45:45;29.40;57.60
39779;DHT22;25454;49.878;8.618;2022-09-01T09:50:46;28.50;56.90
39779;DHT22;25454;49.878;8.618;2022-09-01T09:55:59;27.50;59.90
39779;DHT22;25454;49.878;8.618;2022-09-01T10:01:10;29.30;56.40
39779;DHT22;25454;49.878;8.618;2022-09-01T10:16:33;28.70;54.30
39779;DHT22;25454;49.878;8.618;2022-09-01T10:21:40;28.50;55.50
39779;DHT22;25454;49.878;8.618;2022-09-01T10:26:43;28.00;55.90
39779;DHT22;25454;49.878;8.618;2022-09-01T10:31:53;28.00;56.20
39779;DHT22;25454;49.878;8.618;2022-09-01T10:36:54;28.40;55.10
39779;DHT22;25454;49.878;8.618;2022-09-01T10:41:59;30.50;50.60
39779;DHT22;25454;49.878;8.618;2022-09-01T10:47:28;30.70;49.70
39779;DHT22;25454;49.878;8.618;2022-09-01T11:08:39;34.80;40.00
39779;DHT22;25454;49.878;8.618;2022-09-01T11:13:47;32.90;41.50
39779;DHT22;25454;49.878;8.618;2022-09-01T11:18:52;29.90;46.70
39779;DHT22;25454;49.878;8.618;2022-09-01T11:29:52;27.10;50.10
39779;DHT22;25454;49.878;8.618;2022-09-01T11:34:55;26.60;52.40
39779;DHT22;25454;49.878;8.618;2022-09-01T11:40:02;26.30;53.80
39779;DHT22;25454;49.878;8.618;2022-09-01T11:45:16;26.80;53.50
39779;DHT22;25454;49.878;8.618;2022-09-01T11:50:31;27.30;52.20
39779;DHT22;25454;49.878;8.618;2022-09-01T11:55:36;26.80;52.60
39779;DHT22;25454;49.878;8.618;2022-09-01T12:00:41;26.80;53.10
39779;DHT22;25454;49.878;8.618;2022-09-01T12:05:42;26.40;52.60
39779;DHT22;25454;49.878;8.618;2022-09-01T12:10:43;26.20;53.00
39779;DHT22;25454;49.878;8.618;2022-09-01T12:16:02;26.10;53.80
39779;DHT22;25454;49.878;8.618;2022-09-01T12:21:06;26.20;53.70
39779;DHT22;25454;49.878;8.618;2022-09-01T12:26:13;26.20;53.20
39779;DHT22;25454;49.878;8.618;2022-09-01T12:31:20;26.20;52.40
39779;DHT22;25454;49.878;8.618;2022-09-01T12:36:30;26.10;52.10
39779;DHT22;25454;49.878;8.618;2022-09-01T12:41:33;26.10;53.20
39779;DHT22;25454;49.878;8.618;2022-09-01T12:46:42;26.00;53.50
39779;DHT22;25454;49.878;8.618;2022-09-01T12:51:43;25.90;52.90
39779;DHT22;25454;49.878;8.618;2022-09-01T12:56:49;26.00;52.20
39779;DHT22;25454;49.878;8.618;2022-09-01T13:01:50;26.00;52.60
39779;DHT22;25454;49.878;8.618;2022-09-01T13:06:53;25.90;53.00
39779;DHT22;25454;49.878;8.618;2022-09-01T13:12:15;25.50;53.20
39779;DHT22;25454;49.878;8.618;2022-09-01T13:17:16;25.40;53.70
39779;DHT22;25454;49.878;8.618;2022-09-01T13:22:18;25.30;54.00
39779;DHT22;25454;49.878;8.618;2022-09-01T13:27:19;25.20;53.20
39779;DHT22;25454;49.878;8.618;2022-09-01T13:32:21;25.40;53.70
39779;DHT22;25454;49.878;8.618;2022-09-01T13:37:25;25.40;53.60
39779;DHT22;25454;49.878;8.618;2022-09-01T13:42:26;25.40;53.40
39779;DHT22;25454;49.878;8.618;2022-09-01T13:47:26;25.30;52.50
39779;DHT22;25454;49.878;8.618;2022-09-01T13:52:27;25.30;52.50
39779;DHT22;25454;49.878;8.618;2022-09-01T13:57:29;25.40;52.70
39779;DHT22;25454;49.878;8.618;2022-09-01T14:02:30;25.70;52.80
39779;DHT22;25454;49.878;8.618;2022-09-01T14:07:30;26.00;52.00
39779;DHT22;25454;49.878;8.618;2022-09-01T14:12:31;26.00;51.90
39779;DHT22;25454;49.878;8.618;2022-09-01T14:17:33;25.80;51.20
39779;DHT22;25454;49.878;8.618;2022-09-01T14:22:34;25.80;51.80
39779;DHT22;25454;49.878;8.618;2022-09-01T14:27:35;25.70;51.50
39779;DHT22;25454;49.878;8.618;2022-09-01T14:32:42;25.40;51.20
39779;DHT22;25454;49.878;8.618;2022-09-01T14:37:43;25.20;51.60
39779;DHT22;25454;49.878;8.618;2022-09-01T14:42:46;25.10;51.90
39779;DHT22;25454;49.878;8.618;2022-09-01T14:47:50;25.30;51.40
39779;DHT22;25454;49.878;8.618;2022-09-01T14:52:55;25.40;51.40
39779;DHT22;25454;49.878;8.618;2022-09-01T14:57:56;25.40;50.90
39779;DHT22;25454;49.878;8.618;2022-09-01T15:02:57;25.40;51.30
39779;DHT22;25454;49.878;8.618;2022-09-01T15:07:58;25.20;52.30
39779;DHT22;25454;49.878;8.618;2022-09-01T15:12:59;25.30;51.60
39779;DHT22;25454;49.878;8.618;2022-09-01T15:18:01;25.40;52.10
39779;DHT22;25454;49.878;8.618;2022-09-01T15:23:02;25.40;52.10
39779;DHT22;25454;49.878;8.618;2022-09-01T15:28:03;25.20;51.90
39779;DHT22;25454;49.878;8.618;2022-09-01T15:33:05;25.10;51.50
39779;DHT22;25454;49.878;8.618;2022-09-01T15:38:06;25.10;51.00
39779;DHT22;25454;49.878;8.618;2022-09-01T15:43:07;25.10;50.90
39779;DHT22;25454;49.878;8.618;2022-09-01T15:48:08;25.00;49.30
39779;DHT22;25454;49.878;8.618;2022-09-01T15:53:12;24.90;50.40
39779;DHT22;25454;49.878;8.618;2022-09-01T15:58:15;24.90;51.00
39779;DHT22;25454;49.878;8.618;2022-09-01T16:03:16;24.90;50.90
39779;DHT22;25454;49.878;8.618;2022-09-01T16:08:16;24.90;51.40
39779;DHT22;25454;49.878;8.618;2022-09-01T16:13:19;24.90;51.60
39779;DHT22;25454;49.878;8.618;2022-09-01T16:18:36;24.80;51.80
39779;DHT22;25454;49.878;8.618;2022-09-01T16:23:46;24.70;52.10
39779;DHT22;25454;49.878;8.618;2022-09-01T16:28:54;24.60;52.30
39779;DHT22;25454;49.878;8.618;2022-09-01T16:33:57;24.50;51.90
39779;DHT22;25454;49.878;8.618;2022-09-01T16:44:30;24.20;51.80
39779;DHT22;25454;49.878;8.618;2022-09-01T17:00:02;24.10;53.20
39779;DHT22;25454;49.878;8.618;2022-09-01T17:05:20;24.00;53.10
39779;DHT22;25454;49.878;8.618;2022-09-01T17:10:39;23.90;52.90
39779;DHT22;25454;49.878;8.618;2022-09-01T17:15:41;23.90;53.20
39779;DHT22;25454;49.878;8.618;2022-09-01T17:20:47;23.80;53.40
39779;DHT22;25454;49.878;8.618;2022-09-01T17:25:53;23.70;53.80
39779;DHT22;25454;49.878;8.618;2022-09-01T18:02:47;22.80;56.20
39779;DHT22;25454;49.878;8.618;2022-09-01T18:13:23;22.50;56.70
39779;DHT22;25454;49.878;8.618;2022-09-01T18:18:34;22.40;57.00
39779;DHT22;25454;49.878;8.618;2022-09-01T18:23:38;22.30;57.40
39779;DHT22;25454;49.878;8.618;2022-09-01T18:28:40;22.30;57.90
39779;DHT22;25454;49.878;8.618;2022-09-01T18:45:00;21.90;59.60
39779;DHT22;25454;49.878;8.618;2022-09-01T19:00:54;21.40;62.60
39779;DHT22;25454;49.878;8.618;2022-09-01T19:06:36;21.40;62.90
39779;DHT22;25454;49.878;8.618;2022-09-01T19:11:56;21.40;63.30
39779;DHT22;25454;49.878;8.618;2022-09-01T19:22:00;21.30;63.80
39779;DHT22;25454;49.878;8.618;2022-09-01T19:27:13;21.30;63.90
39779;DHT22;25454;49.878;8.618;2022-09-01T19:32:15;21.40;63.90
39779;DHT22;25454;49.878;8.618;2022-09-01T19:37:21;21.40;64.10
39779;DHT22;25454;49.878;8.618;2022-09-01T19:52:55;21.40;64.60
39779;DHT22;25454;49.878;8.618;2022-09-01T19:58:16;21.40;65.00
39779;DHT22;25454;49.878;8.618;2022-09-01T20:03:38;21.30;65.30
39779;DHT22;25454;49.878;8.618;2022-09-01T20:08:45;21.20;65.80
39779;DHT22;25454;49.878;8.618;2022-09-01T20:19:51;21.10;66.60
39779;DHT22;25454;49.878;8.618;2022-09-01T20:25:01;21.00;67.10
39779;DHT22;25454;49.878;8.618;2022-09-01T20:30:17;20.90;67.50
39779;DHT22;25454;49.878;8.618;2022-09-01T20:40:38;20.80;68.40
39779;DHT22;25454;49.878;8.618;2022-09-01T20:45:40;20.70;69.00
39779;DHT22;25454;49.878;8.618;2022-09-01T20:55:53;20.50;69.60
39779;DHT22;25454;49.878;8.618;2022-09-01T21:07:01;20.40;69.70
39779;DHT22;25454;49.878;8.618;2022-09-01T21:17:53;20.30;70.00
39779;DHT22;25454;49.878;8.618;2022-09-01T21:22:56;20.20;70.40
39779;DHT22;25454;49.878;8.618;2022-09-01T21:27:59;20.20;70.80
39779;DHT22;25454;49.878;8.618;2022-09-01T21:33:00;20.10;71.20
39779;DHT22;25454;49.878;8.618;2022-09-01T21:38:01;20.10;71.40
39779;DHT22;25454;49.878;8.618;2022-09-01T21:43:08;20.10;71.70
39779;DHT22;25454;49.878;8.618;2022-09-01T21:48:11;20.00;72.70
39779;DHT22;25454;49.878;8.618;2022-09-01T21:53:12;19.90;72.70
39779;DHT22;25454;49.878;8.618;2022-09-01T21:58:13;19.80;73.30
39779;DHT22;25454;49.878;8.618;2022-09-01T22:03:14;19.60;73.70
39779;DHT22;25454;49.878;8.618;2022-09-01T22:08:14;19.50;74.40
39779;DHT22;25454;49.878;8.618;2022-09-01T22:13:18;19.40;74.60
39779;DHT22;25454;49.878;8.618;2022-09-01T22:18:20;19.10;75.20
39779;DHT22;25454;49.878;8.618;2022-09-01T22:23:20;18.80;75.90
39779;DHT22;25454;49.878;8.618;2022-09-01T22:28:21;18.70;76.80
39779;DHT22;25454;49.878;8.618;2022-09-01T22:33:22;18.60;77.30
39779;DHT22;25454;49.878;8.618;2022-09-01T22:38:22;18.60;77.60
39779;DHT22;25454;49.878;8.618;2022-09-01T22:43:24;18.50;78.00
39779;DHT22;25454;49.878;8.618;2022-09-01T22:48:27;18.40;78.30
39779;DHT22;25454;49.878;8.618;2022-09-01T22:53:28;18.40;78.50
39779;DHT22;25454;49.878;8.618;2022-09-01T22:58:28;18.30;78.90
39779;DHT22;25454;49.878;8.618;2022-09-01T23:03:29;18.30;79.30
39779;DHT22;25454;49.878;8.618;2022-09-01T23:08:30;18.20;79.80
39779;DHT22;25454;49.878;8.618;2022-09-01T23:13:31;18.10;80.30
39779;DHT22;25454;49.878;8.618;2022-09-01T23:18:33;18.00;80.80
39779;DHT22;25454;49.878;8.618;2022-09-01T23:23:35;17.90;81.40
39779;DHT22;25454;49.878;8.618;2022-09-01T23:28:36;17.80;81.80
39779;DHT22;25454;49.878;8.618;2022-09-01T23:33:37;17.80;82.20
39779;DHT22;25454;49.878;8.618;2022-09-01T23:38:39;17.70;82.60
39779;DHT22;25454;49.878;8.618;2022-09-01T23:43:41;17.70;83.00
39779;DHT22;25454;49.878;8.618;2022-09-01T23:48:41;17.60;83.20
39779;DHT22;25454;49.878;8.618;2022-09-01T23:53:42;17.50;83.60
39779;DHT22;25454;49.878;8.618;2022-09-01T23:58:43;17.50;84.00
